Time;durP1;ratioP1;P1;durP2;ratioP2;P2;SDS_P1;SDS_P2;PMS_P1;PMS_P2;Temp;Humidity;BMP_temperature;BMP_pressure;BME280_temperature;BME280_humidity;BME280_pressure;Samples;Min_cycle;Max_cycle;Signal;HPM_P1;HPM_P2
2021/04/23 00:00:24;;;;;;;10.50;5.03;;;3.90;99.90;;;;;;5052890;28;20104;-71
2021/04/23 00:02:52;;;;;;;10.20;5.47;;;3.90;99.90;;;;;;5056578;28;20025;-71
2021/04/23 00:05:18;;;;;;;13.52;5.25;;;3.90;99.90;;;;;;5059643;28;20036;-72
2021/04/23 00:07:43;;;;;;;21.08;5.90;;;3.90;99.90;;;;;;5055795;28;20029;-71
2021/04/23 00:10:16;;;;;;;16.50;5.85;;;3.80;99.90;;;;;;5056120;28;20463;-70
2021/04/23 00:12:41;;;;;;;;;;;3.70;99.90;;;;;;5055858;28;20068;-72
2021/04/23 00:15:12;;;;;;;11.93;5.35;;;3.70;99.90;;;;;;5056069;28;20366;-72
2021/04/23 00:17:38;;;;;;;15.30;5.50;;;3.70;99.90;;;;;;5037669;28;20382;-73
2021/04/23 00:20:35;;;;;;;12.95;5.72;;;3.70;99.90;;;;;;5055216;28;20025;-73
2021/04/23 00:23:08;;;;;;;12.85;6.03;;;3.60;99.90;;;;;;5027716;28;20040;-72
2021/04/23 00:25:34;;;;;;;13.50;5.72;;;3.60;99.90;;;;;;5054152;28;20542;-71
2021/04/23 00:28:03;;;;;;;12.20;5.57;;;3.50;99.90;;;;;;5054703;28;20051;-72
2021/04/23 00:30:35;;;;;;;14.68;5.65;;;3.50;99.90;;;;;;5054145;28;20021;-73
2021/04/23 00:33:02;;;;;;;11.27;5.45;;;3.40;99.90;;;;;;5053575;28;20023;-71
2021/04/23 00:35:34;;;;;;;15.60;5.93;;;3.30;99.90;;;;;;5036412;28;20029;-71
2021/04/23 00:38:03;;;;;;;13.32;5.63;;;3.30;99.90;;;;;;5054518;28;20112;-70
2021/04/23 00:40:33;;;;;;;14.23;5.88;;;3.20;99.90;;;;;;5054273;28;20032;-72
2021/04/23 00:42:59;;;;;;;10.30;4.97;;;3.20;99.90;;;;;;5053698;28;20060;-72
2021/04/23 00:45:27;;;;;;;17.50;6.00;;;3.10;99.90;;;;;;5054217;28;20037;-73
2021/04/23 00:47:55;;;;;;;14.75;6.18;;;3.20;99.90;;;;;;5054496;28;20029;-71
2021/04/23 00:50:31;;;;;;;14.15;4.80;;;3.20;99.90;;;;;;5054380;28;20047;-72
2021/04/23 00:52:57;;;;;;;14.07;5.60;;;3.20;99.90;;;;;;5053995;28;20029;-71
2021/04/23 00:55:23;;;;;;;18.23;5.90;;;3.20;99.90;;;;;;5054174;28;20025;-72
2021/04/23 00:57:49;;;;;;;12.50;5.45;;;3.20;99.90;;;;;;5054372;28;20025;-72
2021/04/23 01:00:16;;;;;;;22.20;5.80;;;3.20;99.90;;;;;;5055136;28;20503;-72
2021/04/23 01:02:42;;;;;;;12.57;5.60;;;3.10;99.90;;;;;;5053452;28;20110;-72
2021/04/23 01:05:08;;;;;;;13.75;5.82;;;3.00;99.90;;;;;;5053801;28;20060;-72
2021/04/23 01:07:35;;;;;;;11.15;5.82;;;2.90;99.90;;;;;;5053553;28;20025;-72
2021/04/23 01:10:01;;;;;;;12.48;5.25;;;3.00;99.90;;;;;;5053394;28;20040;-73
2021/04/23 01:12:26;;;;;;;11.40;5.63;;;3.00;99.90;;;;;;5035106;28;20029;-71
2021/04/23 01:14:52;;;;;;;20.17;5.90;;;3.00;99.90;;;;;;5052531;28;20021;-72
2021/04/23 01:17:18;;;;;;;11.88;6.20;;;2.90;99.90;;;;;;5053606;28;20039;-72
2021/04/23 01:19:44;;;;;;;8.00;5.40;;;2.90;99.90;;;;;;5035419;28;20053;-72
2021/04/23 01:22:09;;;;;;;10.90;4.75;;;2.80;99.90;;;;;;5053467;28;20529;-72
2021/04/23 01:24:36;;;;;;;14.98;5.97;;;2.80;99.90;;;;;;5034585;28;20494;-73
2021/04/23 01:27:02;;;;;;;16.55;5.90;;;2.80;99.90;;;;;;5052826;28;20024;-70
2021/04/23 01:29:27;;;;;;;15.25;5.93;;;2.70;99.90;;;;;;5052792;28;20025;-73
2021/04/23 01:31:57;;;;;;;12.45;5.57;;;2.70;99.90;;;;;;5053020;28;20025;-72
2021/04/23 01:34:36;;;;;;;9.40;5.40;;;2.60;99.90;;;;;;5052437;28;20021;-72
2021/04/23 01:37:05;;;;;;;12.02;5.40;;;2.60;99.90;;;;;;5052816;28;20028;-71
2021/04/23 01:39:34;;;;;;;12.20;5.53;;;2.50;99.90;;;;;;5052984;28;20021;-71
2021/04/23 01:42:01;;;;;;;16.48;5.90;;;2.30;99.90;;;;;;5052720;28;20029;-72
2021/04/23 01:44:27;;;;;;;12.20;6.00;;;2.30;99.90;;;;;;5052142;28;20028;-71
2021/04/23 01:46:54;;;;;;;10.30;6.45;;;2.30;99.90;;;;;;5052725;28;20835;-70
2021/04/23 01:49:21;;;;;;;13.68;6.53;;;2.40;99.90;;;;;;5052645;28;20028;-73
2021/04/23 01:52:09;;;;;;;12.27;5.70;;;2.30;99.90;;;;;;5052772;28;20021;-73
2021/04/23 01:54:35;;;;;;;11.02;5.00;;;2.30;99.90;;;;;;5034125;28;20032;-70
2021/04/23 01:57:02;;;;;;;15.30;6.30;;;2.30;99.90;;;;;;5052331;28;20032;-72
2021/04/23 01:59:29;;;;;;;13.40;5.45;;;2.30;99.90;;;;;;5034510;28;20029;-71
2021/04/23 02:01:56;;;;;;;12.43;5.25;;;2.40;99.90;;;;;;5052567;28;20036;-71
2021/04/23 02:04:21;;;;;;;14.98;5.25;;;2.40;99.90;;;;;;5049665;28;20033;-74
2021/04/23 02:06:48;;;;;;;16.50;6.05;;;2.30;99.90;;;;;;5052301;28;20024;-73
2021/04/23 02:09:14;;;;;;;21.60;6.13;;;2.20;99.90;;;;;;5051828;28;20031;-73
2021/04/23 02:11:43;;;;;;;13.70;5.38;;;2.20;99.90;;;;;;5062470;22;20041;-73
2021/04/23 02:14:08;;;;;;;16.13;5.53;;;2.10;99.90;;;;;;5053091;28;20022;-72
2021/04/23 02:16:34;;;;;;;12.10;5.45;;;2.10;99.90;;;;;;5058347;28;20024;-73
2021/04/23 02:19:00;;;;;;;20.00;6.72;;;2.00;99.90;;;;;;5041582;28;20032;-73
2021/04/23 02:21:26;;;;;;;16.90;5.88;;;2.00;99.90;;;;;;5069152;28;20043;-73
2021/04/23 02:23:52;;;;;;;11.48;5.10;;;2.00;99.90;;;;;;5074837;28;20020;-73
2021/04/23 02:26:20;;;;;;;13.43;5.63;;;1.90;99.90;;;;;;5076717;28;20024;-73
2021/04/23 02:28:49;;;;;;;11.05;5.40;;;1.90;99.90;;;;;;5072526;28;20012;-73
2021/04/23 02:31:18;;;;;;;18.77;6.00;;;1.80;99.90;;;;;;5072234;28;20017;-73
2021/04/23 02:33:47;;;;;;;12.25;5.35;;;1.80;99.90;;;;;;5073738;28;20043;-73
2021/04/23 02:36:14;;;;;;;12.60;4.95;;;1.80;99.90;;;;;;5072745;28;20066;-71
2021/04/23 02:38:41;;;;;;;18.77;5.43;;;1.70;99.90;;;;;;5073693;28;20094;-72
2021/04/23 02:41:07;;;;;;;18.13;5.32;;;1.70;99.90;;;;;;5075626;28;20080;-72
2021/04/23 02:43:38;;;;;;;15.07;6.10;;;1.70;99.90;;;;;;5079714;28;20028;-72
2021/04/23 02:46:04;;;;;;;14.23;5.70;;;1.70;99.90;;;;;;5080752;28;20032;-73
2021/04/23 02:48:34;;;;;;;15.70;6.00;;;1.70;99.90;;;;;;5076485;28;20429;-72
2021/04/23 02:51:06;;;;;;;16.00;5.88;;;1.60;99.90;;;;;;5072362;28;20020;-71
2021/04/23 02:53:32;;;;;;;12.82;6.03;;;1.60;99.90;;;;;;5075630;28;20475;-72
2021/04/23 02:55:59;;;;;;;12.43;5.20;;;1.60;99.90;;;;;;5071569;28;20028;-72
2021/04/23 02:58:25;;;;;;;10.50;5.80;;;1.70;99.90;;;;;;5053975;28;20616;-72
2021/04/23 03:00:55;;;;;;;12.25;6.05;;;1.60;99.90;;;;;;5072829;28;20051;-72
2021/04/23 03:03:22;;;;;;;9.15;5.53;;;1.60;99.90;;;;;;5072315;28;20370;-72
2021/04/23 03:05:49;;;;;;;17.55;6.20;;;1.60;99.90;;;;;;5074688;28;20038;-72
2021/04/23 03:08:16;;;;;;;15.00;6.35;;;1.60;99.90;;;;;;5054882;28;20107;-72
2021/04/23 03:10:45;;;;;;;12.10;7.03;;;1.60;99.90;;;;;;5071462;28;20047;-72
2021/04/23 03:13:16;;;;;;;11.75;5.32;;;1.60;99.90;;;;;;5071906;28;20051;-72
2021/04/23 03:15:42;;;;;;;13.65;5.65;;;1.60;99.90;;;;;;5074205;28;20054;-72
2021/04/23 03:18:12;;;;;;;14.90;5.50;;;1.60;99.90;;;;;;5072064;28;20482;-72
2021/04/23 03:20:38;;;;;;;15.30;6.75;;;1.60;99.90;;;;;;5073263;28;20029;-71
2021/04/23 03:23:04;;;;;;;10.98;5.20;;;1.60;99.90;;;;;;5052977;28;20024;-72
2021/04/23 03:25:33;;;;;;;14.25;6.25;;;1.50;99.90;;;;;;5071263;28;20043;-72
2021/04/23 03:28:00;;;;;;;16.23;6.15;;;1.50;99.90;;;;;;5071666;28;20045;-72
2021/04/23 03:30:29;;;;;;;18.63;6.95;;;1.50;99.90;;;;;;5071353;28;20020;-72
2021/04/23 03:32:55;;;;;;;14.45;5.45;;;1.40;99.90;;;;;;5070796;28;20471;-72
2021/04/23 03:35:21;;;;;;;12.70;6.03;;;1.40;99.90;;;;;;5071754;28;20047;-73
2021/04/23 03:37:47;;;;;;;16.95;5.97;;;1.30;99.90;;;;;;5075244;28;20166;-72
2021/04/23 03:40:16;;;;;;;11.40;5.65;;;1.30;99.90;;;;;;5075267;28;20021;-72
2021/04/23 03:42:42;;;;;;;14.55;6.20;;;1.30;99.90;;;;;;5074099;28;20024;-73
2021/04/23 03:45:11;;;;;;;13.82;6.13;;;1.20;99.90;;;;;;5075299;28;20040;-73
2021/04/23 03:47:38;;;;;;;16.33;6.55;;;1.20;99.90;;;;;;5075095;28;20028;-73
2021/04/23 03:50:06;;;;;;;14.95;5.75;;;1.20;99.90;;;;;;5074898;28;20025;-72
2021/04/23 03:52:32;;;;;;;16.27;7.15;;;1.20;99.90;;;;;;5074738;28;20096;-74
2021/04/23 03:55:00;;;;;;;13.45;6.10;;;1.30;99.90;;;;;;5075258;28;20098;-72
2021/04/23 03:57:26;;;;;;;17.73;6.13;;;1.10;99.90;;;;;;5074546;28;20082;-73
2021/04/23 03:59:51;;;;;;;18.73;6.10;;;1.00;99.90;;;;;;5074882;28;20029;-73
2021/04/23 04:02:17;;;;;;;12.95;5.90;;;1.00;99.90;;;;;;5075261;28;20486;-73
2021/04/23 04:04:43;;;;;;;19.38;6.20;;;0.90;99.90;;;;;;5074540;28;20028;-73
2021/04/23 04:07:08;;;;;;;17.65;6.85;;;1.00;99.90;;;;;;5075215;28;20028;-73
2021/04/23 04:09:34;;;;;;;13.00;6.00;;;1.00;99.90;;;;;;5054961;28;20093;-72
2021/04/23 04:12:00;;;;;;;14.07;6.25;;;1.10;99.90;;;;;;5049061;28;20036;-74
2021/04/23 04:14:25;;;;;;;17.88;7.03;;;1.00;99.90;;;;;;5073201;28;20386;-73
2021/04/23 04:16:52;;;;;;;12.65;6.65;;;1.00;99.90;;;;;;5077214;28;20024;-74
2021/04/23 04:19:18;;;;;;;15.05;6.47;;;1.00;99.90;;;;;;5062233;28;20028;-73
2021/04/23 04:21:43;;;;;;;16.15;7.95;;;1.00;99.90;;;;;;5072482;28;20025;-74
2021/04/23 04:24:09;;;;;;;16.35;7.25;;;1.00;99.90;;;;;;5053083;28;20017;-74
2021/04/23 04:26:35;;;;;;;20.60;7.55;;;1.00;99.90;;;;;;5053363;28;20029;-74
2021/04/23 04:29:01;;;;;;;17.83;7.10;;;1.00;99.90;;;;;;5072306;28;20044;-75
2021/04/23 04:31:26;;;;;;;15.85;6.97;;;1.00;99.90;;;;;;5071752;28;20013;-74
2021/04/23 04:33:52;;;;;;;15.13;6.95;;;1.00;99.90;;;;;;5052586;28;20111;-74
2021/04/23 04:36:19;;;;;;;18.00;7.60;;;1.00;99.90;;;;;;5071308;28;20056;-74
2021/04/23 04:38:45;;;;;;;18.95;6.85;;;1.00;99.90;;;;;;5071609;28;20029;-75
2021/04/23 04:41:12;;;;;;;16.48;7.22;;;1.10;99.90;;;;;;5069948;28;20082;-74
2021/04/23 04:43:39;;;;;;;15.48;6.35;;;1.00;99.90;;;;;;5070434;28;20432;-75
2021/04/23 04:46:05;;;;;;;17.25;6.53;;;1.10;99.90;;;;;;5053017;28;20111;-74
2021/04/23 04:48:31;;;;;;;17.65;6.90;;;1.10;99.90;;;;;;5069466;28;20683;-74
2021/04/23 04:50:59;;;;;;;14.65;6.97;;;1.10;99.90;;;;;;5070735;28;20031;-74
2021/04/23 04:53:26;;;;;;;11.50;6.25;;;1.10;99.90;;;;;;5070865;28;20020;-75
2021/04/23 04:55:54;;;;;;;14.82;6.00;;;1.10;99.90;;;;;;5071444;28;20044;-74
2021/04/23 04:58:24;;;;;;;16.27;6.10;;;1.20;99.90;;;;;;5071315;28;20020;-74
2021/04/23 05:00:50;;;;;;;20.65;7.10;;;1.30;99.90;;;;;;5072433;28;20067;-75
2021/04/23 05:03:16;;;;;;;17.08;6.78;;;1.20;99.90;;;;;;5072633;28;20052;-74
2021/04/23 05:05:43;;;;;;;15.45;7.40;;;1.20;99.90;;;;;;5073283;28;20020;-74
2021/04/23 05:08:09;;;;;;;17.70;6.82;;;1.30;99.90;;;;;;5080343;28;20048;-74
2021/04/23 05:10:35;;;;;;;21.38;7.22;;;1.30;99.90;;;;;;5081062;28;20020;-74
2021/04/23 05:13:01;;;;;;;21.88;7.90;;;1.30;99.90;;;;;;5073269;28;20043;-75
2021/04/23 05:15:28;;;;;;;20.40;7.88;;;1.30;99.90;;;;;;5071710;28;20505;-75
2021/04/23 05:17:55;;;;;;;16.88;8.40;;;1.30;99.90;;;;;;5053220;28;20123;-75
2021/04/23 05:20:22;;;;;;;17.67;7.97;;;1.20;99.90;;;;;;5072627;28;20033;-75
2021/04/23 05:22:49;;;;;;;18.52;8.13;;;1.30;99.90;;;;;;5072086;28;20024;-74
2021/04/23 05:25:22;;;;;;;21.55;6.78;;;1.30;99.90;;;;;;5073369;28;20028;-74
2021/04/23 05:27:48;;;;;;;14.90;6.43;;;1.40;99.90;;;;;;5056097;28;20573;-74
2021/04/23 05:30:17;;;;;;;18.05;6.90;;;1.40;99.90;;;;;;5074112;28;20037;-73
2021/04/23 05:32:46;;;;;;;15.05;6.32;;;1.50;99.90;;;;;;5069710;28;20108;-73
2021/04/23 05:35:13;;;;;;;15.30;6.63;;;1.70;99.90;;;;;;5070424;28;20483;-73
2021/04/23 05:37:39;;;;;;;15.48;6.18;;;1.90;99.90;;;;;;5070225;28;20039;-73
2021/04/23 05:40:08;;;;;;;15.60;7.40;;;2.10;99.90;;;;;;5071038;28;20037;-74
2021/04/23 05:42:34;;;;;;;16.75;6.25;;;2.10;99.90;;;;;;5071208;28;20032;-73
2021/04/23 05:44:59;;;;;;;14.80;5.97;;;2.10;99.90;;;;;;5070293;28;20033;-73
2021/04/23 05:47:26;;;;;;;16.80;6.18;;;2.10;99.90;;;;;;5078937;28;20414;-74
2021/04/23 05:49:52;;;;;;;20.88;6.10;;;2.20;99.90;;;;;;5063614;28;20020;-73
2021/04/23 05:52:18;;;;;;;14.60;5.82;;;2.20;99.90;;;;;;5083347;28;20031;-71
2021/04/23 05:54:44;;;;;;;11.57;5.78;;;2.20;99.90;;;;;;5081056;28;20071;-75
2021/04/23 05:57:10;;;;;;;16.20;5.60;;;2.30;99.90;;;;;;5083062;28;20056;-73
2021/04/23 05:59:36;;;;;;;14.95;5.97;;;2.40;99.90;;;;;;5083746;28;20052;-73
2021/04/23 06:02:02;;;;;;;13.38;6.00;;;2.40;99.90;;;;;;5084649;28;20474;-72
2021/04/23 06:04:28;;;;;;;15.80;6.00;;;2.40;99.90;;;;;;5082876;28;20508;-74
2021/04/23 06:06:55;;;;;;;15.20;6.38;;;2.50;99.90;;;;;;5081012;28;20032;-74
2021/04/23 06:09:20;;;;;;;16.45;5.95;;;2.50;99.90;;;;;;5074798;28;20074;-76
2021/04/23 06:11:46;;;;;;;13.63;5.45;;;2.60;99.90;;;;;;5073218;28;20036;-73
2021/04/23 06:14:12;;;;;;;11.85;5.40;;;2.70;99.90;;;;;;5077261;28;20025;-73
2021/04/23 06:16:38;;;;;;;12.93;5.43;;;2.70;99.90;;;;;;5078183;28;20036;-73
2021/04/23 06:19:04;;;;;;;15.73;6.35;;;2.80;99.90;;;;;;5069562;28;20021;-72
2021/04/23 06:21:31;;;;;;;13.15;5.70;;;2.90;99.90;;;;;;5053409;28;20024;-73
2021/04/23 06:23:57;;;;;;;17.00;6.30;;;2.90;99.90;;;;;;5070724;28;20497;-74
2021/04/23 06:26:23;;;;;;;12.98;5.45;;;2.90;99.90;;;;;;5070296;28;20071;-74
2021/04/23 06:28:49;;;;;;;17.85;5.70;;;3.00;99.90;;;;;;5074859;28;20162;-73
2021/04/23 06:31:15;;;;;;;10.60;5.03;;;3.10;99.90;;;;;;5072830;28;20029;-72
2021/04/23 06:33:46;;;;;;;15.80;5.80;;;3.20;99.90;;;;;;5070377;28;20029;-72
2021/04/23 06:36:12;;;;;;;13.70;5.47;;;3.20;99.90;;;;;;5071695;28;20029;-72
2021/04/23 06:38:38;;;;;;;16.83;5.47;;;3.30;99.90;;;;;;5072194;28;20028;-73
2021/04/23 06:41:06;;;;;;;12.00;5.63;;;3.40;99.90;;;;;;5053316;28;20099;-76
2021/04/23 06:43:32;;;;;;;11.60;5.63;;;3.60;99.90;;;;;;5071786;28;20039;-74
2021/04/23 06:45:57;;;;;;;13.30;5.07;;;3.70;99.90;;;;;;5074581;28;20024;-75
2021/04/23 06:48:23;;;;;;;14.82;5.45;;;3.90;99.90;;;;;;5075034;28;20036;-74
2021/04/23 06:50:50;;;;;;;10.10;5.38;;;4.20;99.90;;;;;;5072534;28;20111;-74
2021/04/23 06:53:17;;;;;;;10.57;5.55;;;4.60;99.90;;;;;;5064468;28;20020;-73
2021/04/23 06:55:43;;;;;;;10.55;5.00;;;4.50;99.90;;;;;;5071963;28;20025;-74
2021/04/23 06:58:09;;;;;;;12.68;5.65;;;4.50;99.90;;;;;;5072104;28;20021;-72
2021/04/23 07:00:37;;;;;;;14.65;6.25;;;4.70;99.90;;;;;;5071622;28;20087;-72
2021/04/23 07:03:04;;;;;;;19.52;6.35;;;5.00;99.90;;;;;;5071776;28;20024;-73
2021/04/23 07:05:30;;;;;;;16.17;5.65;;;5.00;99.90;;;;;;5072251;28;20073;-73
2021/04/23 07:07:56;;;;;;;8.82;5.63;;;5.10;99.90;;;;;;5072237;28;20099;-72
2021/04/23 07:10:26;;;;;;;17.48;5.93;;;5.30;99.90;;;;;;5071540;28;20032;-74
2021/04/23 07:12:53;;;;;;;14.52;5.63;;;5.30;99.90;;;;;;5075395;28;20056;-74
2021/04/23 07:15:21;;;;;;;20.25;5.80;;;5.40;99.90;;;;;;5076099;28;20074;-71
2021/04/23 07:17:48;;;;;;;12.15;5.13;;;5.70;99.90;;;;;;5058666;28;20501;-72
2021/04/23 07:20:15;;;;;;;9.57;5.63;;;5.90;99.90;;;;;;5055266;28;20029;-72
2021/04/23 07:22:42;;;;;;;12.15;5.57;;;6.00;99.90;;;;;;5072597;28;20052;-72
2021/04/23 07:25:10;;;;;;;13.55;6.20;;;6.20;99.90;;;;;;5076434;28;20021;-73
2021/04/23 07:27:36;;;;;;;17.38;6.03;;;6.50;99.90;;;;;;5083195;28;20017;-74
2021/04/23 07:30:09;;;;;;;16.00;6.00;;;6.70;99.90;;;;;;5073958;28;20036;-73
2021/04/23 07:32:35;;;;;;;12.15;5.88;;;7.00;99.90;;;;;;5072585;28;20032;-75
2021/04/23 07:35:01;;;;;;;17.25;6.07;;;7.30;99.90;;;;;;5071461;28;20154;-73
2021/04/23 07:37:27;;;;;;;15.68;5.43;;;7.60;99.90;;;;;;5072297;28;20029;-73
2021/04/23 07:39:52;;;;;;;14.00;5.32;;;7.80;99.90;;;;;;5071954;28;20023;-73
2021/04/23 07:42:18;;;;;;;14.77;5.63;;;7.80;99.90;;;;;;5073991;28;20394;-73
2021/04/23 07:44:44;;;;;;;14.20;5.15;;;8.00;99.90;;;;;;5070682;28;20391;-73
2021/04/23 07:47:09;;;;;;;11.32;5.78;;;8.10;99.90;;;;;;5053653;28;20683;-72
2021/04/23 07:49:36;;;;;;;13.38;5.90;;;8.40;99.90;;;;;;5057326;28;20079;-73
2021/04/23 07:52:02;;;;;;;10.55;5.45;;;8.60;99.90;;;;;;5050825;28;20018;-72
2021/04/23 07:54:28;;;;;;;12.82;5.03;;;8.90;99.90;;;;;;5052195;28;20024;-71
2021/04/23 07:56:53;;;;;;;8.82;5.15;;;9.00;99.80;;;;;;5053202;28;20025;-72
2021/04/23 07:59:19;;;;;;;9.77;4.75;;;9.30;99.80;;;;;;5054433;28;20025;-72
2021/04/23 08:01:45;;;;;;;11.57;5.32;;;9.50;98.70;;;;;;5062829;28;20165;-72
2021/04/23 08:04:11;;;;;;;13.43;5.25;;;9.90;99.90;;;;;;5076207;28;20025;-73
2021/04/23 08:06:36;;;;;;;13.70;5.05;;;10.60;97.30;;;;;;5087182;28;20025;-73
2021/04/23 08:09:03;;;;;;;13.40;5.55;;;10.80;97.30;;;;;;5086922;28;20024;-73
2021/04/23 08:11:29;;;;;;;15.57;4.78;;;10.70;95.20;;;;;;5084210;28;20115;-73
2021/04/23 08:13:54;;;;;;;13.90;4.82;;;11.10;96.30;;;;;;5090342;22;20064;-70
2021/04/23 08:16:21;;;;;;;12.50;4.97;;;11.60;95.50;;;;;;5046412;28;20032;-70
2021/04/23 08:18:51;;;;;;;8.80;4.65;;;12.30;94.30;;;;;;5045973;28;20021;-70
2021/04/23 08:21:17;;;;;;;11.80;4.28;;;13.10;92.90;;;;;;5048829;28;20112;-70
2021/04/23 08:23:46;;;;;;;10.43;4.85;;;13.00;90.50;;;;;;5054211;28;20120;-71
2021/04/23 08:26:12;;;;;;;9.88;4.60;;;12.90;88.40;;;;;;5042554;28;20030;-70
2021/04/23 08:28:37;;;;;;;15.13;4.88;;;13.90;84.00;;;;;;5034781;28;20438;-71
2021/04/23 08:31:03;;;;;;;14.30;4.07;;;13.80;84.70;;;;;;5052217;28;20053;-70
2021/04/23 08:33:29;;;;;;;10.48;4.45;;;13.80;80.90;;;;;;5055337;28;20025;-71
2021/04/23 08:35:55;;;;;;;9.32;3.70;;;13.90;80.60;;;;;;5055428;28;20475;-70
2021/04/23 08:38:24;;;;;;;10.82;3.83;;;14.10;77.90;;;;;;5054635;28;20498;-71
2021/04/23 08:40:54;;;;;;;15.25;4.00;;;14.20;76.10;;;;;;5054403;28;20547;-71
2021/04/23 08:43:20;;;;;;;11.43;3.50;;;15.30;75.50;;;;;;5053849;28;20455;-72
2021/04/23 08:45:45;;;;;;;17.27;3.95;;;14.70;71.60;;;;;;5054229;28;20051;-70
2021/04/23 08:48:12;;;;;;;6.30;3.42;;;14.90;72.80;;;;;;5054288;28;20024;-71
2021/04/23 08:50:38;;;;;;;8.20;3.45;;;15.40;72.00;;;;;;5054587;28;20096;-72
2021/04/23 08:53:05;;;;;;;10.30;3.97;;;15.80;67.70;;;;;;5053372;28;20032;-71
2021/04/23 08:55:31;;;;;;;11.00;3.85;;;15.80;67.30;;;;;;5053885;28;20370;-71
2021/04/23 08:57:57;;;;;;;12.00;3.67;;;15.70;68.20;;;;;;5054293;28;20029;-72
2021/04/23 09:00:23;;;;;;;7.18;3.15;;;16.10;65.60;;;;;;5053661;28;20051;-71
2021/04/23 09:02:49;;;;;;;14.07;3.70;;;16.60;62.10;;;;;;5053391;28;20060;-71
2021/04/23 09:05:15;;;;;;;14.48;4.70;;;16.40;64.80;;;;;;5053761;28;20017;-71
2021/04/23 09:07:41;;;;;;;9.52;3.50;;;16.40;63.80;;;;;;5054020;28;20017;-71
2021/04/23 09:10:09;;;;;;;10.13;3.70;;;16.90;62.90;;;;;;5054126;28;20013;-70
2021/04/23 09:12:35;;;;;;;8.43;3.30;;;17.10;60.40;;;;;;5054095;28;20433;-69
2021/04/23 09:15:02;;;;;;;6.40;3.15;;;17.80;59.20;;;;;;5053429;28;20036;-71
2021/04/23 09:17:29;;;;;;;10.80;2.92;;;17.50;57.70;;;;;;5053899;28;20040;-72
2021/04/23 09:19:57;;;;;;;7.55;2.90;;;17.60;57.80;;;;;;5053369;28;20021;-69
2021/04/23 09:22:31;;;;;;;10.18;3.28;;;17.60;56.00;;;;;;5053256;28;20119;-71
2021/04/23 09:24:59;;;;;;;8.95;3.20;;;18.10;57.50;;;;;;5052666;28;20061;-73
2021/04/23 09:27:34;;;;;;;10.77;3.35;;;18.10;57.10;;;;;;5053478;28;20017;-72
2021/04/23 09:30:06;;;;;;;8.15;3.20;;;18.00;56.60;;;;;;5034752;28;20061;-72
2021/04/23 09:32:40;;;;;;;11.73;3.42;;;18.60;54.10;;;;;;5053011;28;20117;-70
2021/04/23 09:35:12;;;;;;;11.55;3.28;;;18.10;53.90;;;;;;5052712;28;20048;-70
2021/04/23 09:37:41;;;;;;;10.20;3.72;;;17.10;57.50;;;;;;5053416;28;20172;-72
2021/04/23 09:40:13;;;;;;;11.38;3.55;;;17.30;57.10;;;;;;5053140;28;20037;-72
2021/04/23 09:42:48;;;;;;;8.63;3.90;;;18.20;56.50;;;;;;5052665;28;20033;-71
2021/04/23 09:45:16;;;;;;;11.57;3.47;;;18.60;56.20;;;;;;5034943;28;20410;-71
2021/04/23 09:47:42;;;;;;;12.43;3.50;;;18.90;53.80;;;;;;5053655;28;20021;-72
2021/04/23 09:50:10;;;;;;;10.43;3.38;;;18.40;53.80;;;;;;5053178;28;20580;-70
2021/04/23 09:52:51;;;;;;;7.15;2.97;;;18.60;54.20;;;;;;5053314;28;20086;-70
2021/04/23 09:55:22;;;;;;;8.88;3.47;;;19.60;53.10;;;;;;5035444;28;20465;-72
2021/04/23 09:57:56;;;;;;;10.68;3.60;;;19.10;51.20;;;;;;5053274;28;20423;-71
2021/04/23 10:00:26;;;;;;;8.02;3.10;;;18.80;52.40;;;;;;5052485;28;20067;-71
2021/04/23 10:02:55;;;;;;;11.48;2.95;;;18.70;52.10;;;;;;5051698;28;20567;-70
2021/04/23 10:05:43;;;;;;;8.90;3.45;;;18.20;53.40;;;;;;5052287;28;20028;-72
2021/04/23 10:08:24;;;;;;;8.57;3.20;;;19.10;53.20;;;;;;5052380;28;20368;-72
2021/04/23 10:10:52;;;;;;;7.20;3.00;;;19.20;51.60;;;;;;5052164;28;20083;-72
2021/04/23 10:13:28;;;;;;;12.13;4.38;;;19.20;50.30;;;;;;5051170;28;20454;-72
2021/04/23 10:15:54;;;;;;;9.40;2.95;;;20.10;52.10;;;;;;5034004;28;20033;-69
2021/04/23 10:18:19;;;;;;;10.10;3.45;;;20.40;61.10;;;;;;5051636;28;20082;-72
2021/04/23 10:20:48;;;;;;;7.70;3.05;;;21.40;53.20;;;;;;5051746;28;20021;-73
2021/04/23 10:23:19;;;;;;;8.20;3.42;;;21.10;47.70;;;;;;5051530;28;20112;-73
2021/04/23 10:25:46;;;;;;;8.50;3.03;;;21.10;46.90;;;;;;5033577;28;20025;-71
2021/04/23 10:28:25;;;;;;;11.85;3.72;;;20.40;47.00;;;;;;5033224;28;20037;-72
2021/04/23 10:31:01;;;;;;;9.90;3.17;;;20.60;46.60;;;;;;5015045;28;20080;-73
2021/04/23 10:33:32;;;;;;;5.60;2.70;;;21.40;47.90;;;;;;5015816;28;20436;-72
2021/04/23 10:35:59;;;;;;;7.60;3.20;;;20.10;46.60;;;;;;5015636;28;20029;-71
2021/04/23 10:38:27;;;;;;;10.60;3.05;;;20.00;48.10;;;;;;5031877;28;20029;-72
2021/04/23 10:40:56;;;;;;;9.52;3.20;;;19.60;48.20;;;;;;5031361;28;20029;-72
2021/04/23 10:43:22;;;;;;;9.95;3.70;;;19.80;45.50;;;;;;5033643;28;20028;-72
2021/04/23 10:46:00;;;;;;;9.65;3.67;;;20.20;48.50;;;;;;5050282;28;20017;-72
2021/04/23 10:48:32;;;;;;;8.10;3.10;;;21.00;44.80;;;;;;5052150;28;20174;-71
2021/04/23 10:51:09;;;;;;;13.52;4.18;;;20.50;46.40;;;;;;5051565;28;20045;-70
2021/04/23 10:53:46;;;;;;;9.45;3.85;;;20.40;46.40;;;;;;5031894;28;20033;-71
2021/04/23 10:56:17;;;;;;;6.13;3.28;;;20.50;49.80;;;;;;5049670;28;20025;-70
2021/04/23 10:58:43;;;;;;;7.63;3.92;;;21.20;47.80;;;;;;5049785;28;20090;-71
2021/04/23 11:01:15;;;;;;;9.13;3.85;;;22.20;47.10;;;;;;5049772;28;20490;-71
2021/04/23 11:04:03;;;;;;;;;;;22.00;45.00;;;;;;5050083;28;20068;-71
2021/04/23 11:06:32;;;;;;;9.80;3.40;;;21.60;45.70;;;;;;5049694;28;19923;-71
2021/04/23 11:09:01;;;;;;;9.73;4.03;;;21.40;45.20;;;;;;5049809;28;20017;-71
2021/04/23 11:11:27;;;;;;;12.00;3.88;;;21.90;45.50;;;;;;5049706;28;20041;-69
2021/04/23 11:13:53;;;;;;;9.68;3.83;;;21.90;45.70;;;;;;5041811;28;20037;-72
2021/04/23 11:18:45;;;;;;;11.60;4.25;;;21.40;45.30;;;;;;5029447;28;20033;-70
2021/04/23 11:21:37;;;;;;;13.88;4.40;;;20.60;46.70;;;;;;5029621;28;20029;-71
2021/04/23 11:24:15;;;;;;;8.73;4.00;;;20.50;46.10;;;;;;5029335;28;20025;-69
2021/04/23 11:29:41;;;;;;;6.88;3.83;;;20.40;47.40;;;;;;5028952;28;20026;-69
2021/04/23 11:32:19;;;;;;;10.40;4.18;;;20.80;45.60;;;;;;4998366;28;20045;-68
2021/04/23 11:34:55;;;;;;;10.45;3.85;;;20.90;45.50;;;;;;5028775;28;20021;-69
2021/04/23 11:37:29;;;;;;;10.80;4.30;;;20.90;45.00;;;;;;5029834;28;20029;-71
2021/04/23 11:40:21;;;;;;;8.40;3.15;;;20.90;43.70;;;;;;5011217;28;20167;-69
2021/04/23 11:42:57;;;;;;;7.70;3.22;;;21.40;43.80;;;;;;5020099;28;20025;-69
2021/04/23 11:45:33;;;;;;;9.07;3.55;;;21.00;41.50;;;;;;5029171;28;20030;-71
2021/04/23 11:48:10;;;;;;;10.40;3.55;;;20.60;42.10;;;;;;5031033;28;20033;-71
2021/04/23 11:50:38;;;;;;;10.60;3.95;;;20.70;43.10;;;;;;5050012;28;20096;-71
2021/04/23 11:53:09;;;;;;;8.07;4.13;;;20.80;43.20;;;;;;5049735;28;20017;-72
2021/04/23 11:55:56;;;;;;;9.80;4.13;;;20.60;43.60;;;;;;5051201;28;20089;-70
2021/04/23 11:58:25;;;;;;;4.60;3.17;;;21.00;42.30;;;;;;5050097;28;20658;-70
2021/04/23 12:00:54;;;;;;;8.20;3.30;;;21.30;41.90;;;;;;5041776;28;20041;-70
2021/04/23 12:03:20;;;;;;;6.10;3.13;;;21.60;41.20;;;;;;5054367;28;20064;-71
2021/04/23 12:05:47;;;;;;;6.65;2.78;;;21.50;39.20;;;;;;5053990;28;20025;-69
2021/04/23 12:08:22;;;;;;;9.55;2.78;;;21.40;39.80;;;;;;5054381;28;20100;-70
2021/04/23 12:10:50;;;;;;;9.10;3.45;;;21.20;40.00;;;;;;5054160;28;20105;-71
2021/04/23 12:13:16;;;;;;;12.82;3.40;;;20.90;39.50;;;;;;5053252;28;20044;-71
2021/04/23 12:15:44;;;;;;;8.27;3.55;;;20.40;40.70;;;;;;5036756;28;20092;-69
2021/04/23 12:18:12;;;;;;;6.70;3.05;;;20.40;40.80;;;;;;5016684;28;20083;-70
2021/04/23 12:20:43;;;;;;;9.95;3.40;;;20.50;40.30;;;;;;5034166;28;20029;-68
2021/04/23 12:23:14;;;;;;;7.60;3.50;;;21.10;42.30;;;;;;5033363;28;20037;-70
2021/04/23 12:25:55;;;;;;;10.75;3.72;;;21.50;39.90;;;;;;5034058;28;20306;-69
2021/04/23 12:28:42;;;;;;;6.53;2.45;;;21.00;40.00;;;;;;5034196;28;20044;-69
2021/04/23 12:31:25;;;;;;;7.15;3.67;;;20.70;40.70;;;;;;5053230;28;20364;-69
2021/04/23 12:34:10;;;;;;;6.60;3.13;;;20.70;39.90;;;;;;5035057;28;20386;-68
2021/04/23 12:36:39;;;;;;;8.32;3.45;;;20.90;39.80;;;;;;5054075;28;20025;-70
2021/04/23 12:39:10;;;;;;;8.55;3.50;;;20.90;38.90;;;;;;5054641;28;20064;-69
2021/04/23 12:41:39;;;;;;;7.00;3.25;;;21.50;41.70;;;;;;5054145;28;20031;-71
2021/04/23 12:44:09;;;;;;;8.75;3.20;;;21.90;38.80;;;;;;5052788;28;20029;-70
2021/04/23 12:46:44;;;;;;;9.02;4.38;;;21.70;37.90;;;;;;5053649;28;20031;-69
2021/04/23 12:49:16;;;;;;;8.40;4.32;;;21.40;39.20;;;;;;5053730;28;20021;-69
2021/04/23 12:51:57;;;;;;;4.30;3.10;;;21.10;39.50;;;;;;5053420;28;20024;-70
2021/04/23 12:54:33;;;;;;;9.97;4.17;;;21.20;39.00;;;;;;5053118;28;20025;-70
2021/04/23 12:57:05;;;;;;;11.18;4.80;;;21.50;39.80;;;;;;5050719;28;20028;-70